Flight Track Log - Related Links

Times and Time Zones

All times are in EDT time to prevent confusion due to time zone crossing. See the N62368 flight status page for this flight to view local times or setup timezone preferences in your user account.

Time Position Orientation Groundspeed Altitude Reporting Facility
EDT Latitude Longitude Course Direction KTS MPH feet Rate Location/Type
Sat 12:37:00 PM 42.9288 -78.7549 237° Southwest  Level Estimated
Sat 12:38:00 PM 42.9083 -78.7979 237° Southwest  Level Estimated
Sat 12:39:00 PM 42.8878 -78.8408 237° Southwest  Level Estimated
Sat 12:40:00 PM 42.8673 -78.8837 237° Southwest  Level Estimated
Sat 12:41:00 PM 42.8467 -78.9265 237° Southwest  Level Estimated
Sat 12:42:00 PM 42.8262 -78.9694 237° Southwest  Level Estimated
Sat 12:43:00 PM 42.8056 -79.0122 237° Southwest  Level Estimated
Sat 12:44:00 PM 42.7850 -79.0549 237° Southwest  Level Estimated
Sat 12:45:00 PM 42.7644 -79.0977 237° Southwest  Level Estimated
Sat 12:46:00 PM 42.7438 -79.1404 237° Southwest  Level Estimated
Sat 12:47:00 PM 42.7232 -79.1831 237° Southwest  Level Estimated
Sat 12:48:00 PM 42.7025 -79.2257 237° Southwest  Level Estimated
Sat 12:49:00 PM 42.6819 -79.2684 237° Southwest  Level Estimated
Sat 12:50:00 PM 42.6612 -79.3110 237° Southwest  Level Estimated
Sat 12:51:00 PM 42.6405 -79.3535 237° Southwest  Level Estimated
Sat 12:52:00 PM 42.6198 -79.3961 237° Southwest  Level Estimated
Sat 12:53:00 PM 42.5990 -79.4386 236° Southwest  Level Estimated
Sat 12:54:00 PM 42.5783 -79.4811 236° Southwest  Level Estimated
Sat 12:55:00 PM 42.5575 -79.5235 236° Southwest  Level Estimated
Sat 12:56:00 PM 42.5368 -79.5660 236° Southwest  Level Estimated
Sat 12:57:00 PM 42.5160 -79.6084 236° Southwest  Level Estimated
Sat 12:58:00 PM 42.4952 -79.6507 236° Southwest  Level Estimated
Sat 12:59:00 PM 42.4743 -79.6931 236° Southwest  Level Estimated
Sat 01:00:00 PM 42.4535 -79.7354 236° Southwest  Level Estimated
Sat 01:01:00 PM 42.4326 -79.7777 236° Southwest  Level Estimated
Sat 01:02:00 PM 42.4118 -79.8200 236° Southwest  Level Estimated
Sat 01:03:00 PM 42.3909 -79.8622 236° Southwest  Level Estimated
Sat 01:04:00 PM 42.3700 -79.9044 236° Southwest  Level Estimated
Sat 01:04:59 PM 42.9167 -78.7167 180° South 122 140 2,100  Level Buffalo TRACON
Sat 01:05:00 PM 42.3491 -79.9466 236° Southwest  Level Estimated
Sat 01:05:59 PM 42.9000 -78.7667 246° West 139 160 3,100  Level Buffalo TRACON
Sat 01:06:00 PM 42.3281 -79.9887 236° Southwest  Level Estimated
Sat 01:07:00 PM 42.3072 -80.0309 236° Southwest  Level Estimated
Sat 01:07:00 PM 42.8833 -78.8000 236° Southwest 142 163 4,100  Level Buffalo TRACON
Sat 01:08:00 PM 42.2862 -80.0729 236° Southwest  Level Estimated
Sat 01:08:00 PM 42.8500 -78.8500 228° Southwest 172 198 4,000  Level Buffalo TRACON
Sat 01:08:54 PM 42.8333 -78.9000 246° West 176 203 4,000 50 Level Buffalo TRACON
Sat 01:09:00 PM 42.2652 -80.1150 236° Southwest  Level Estimated
Sat 01:10:00 PM 42.8000 -78.9667 236° Southwest 170 196 4,100  Level Buffalo TRACON
Sat 01:11:06 PM 42.7667 -79.0167 228° Southwest 171 197 4,000 -48 Descending Buffalo TRACON
Sat 01:12:06 PM 42.7500 -79.0667 246° West 171 197 4,000  Level Buffalo TRACON
Sat 01:13:00 PM 42.7167 -79.1167 228° Southwest 170 196 4,000 53 Level Buffalo TRACON
Sat 01:14:00 PM 42.7000 -79.1833 251° West 171 197 4,100 -6 Climbing Buffalo TRACON
Sat 01:16:00 PM 42.6609 -79.2705 239° Southwest  Level FlightAware Approximate
Sat 01:23:00 PM 42.5221 -79.5738 236° Southwest  Level FlightAware Approximate
Sat 01:24:00 PM 42.5014 -79.6162 236° Southwest  Level FlightAware Approximate
Sat 01:25:00 PM 42.4806 -79.6586 236° Southwest  Level FlightAware Approximate
Sat 01:26:00 PM 42.4598 -79.7010 236° Southwest  Level FlightAware Approximate
Sat 01:27:00 PM 42.4390 -79.7433 236° Southwest  Level FlightAware Approximate
Sat 01:28:00 PM 42.4182 -79.7857 236° Southwest  Level FlightAware Approximate
Sat 01:29:00 PM 42.3974 -79.8279 236° Southwest  Level FlightAware Approximate
Sat 01:30:00 PM 42.3766 -79.8702 236° Southwest  Level FlightAware Approximate
Sat 01:31:00 PM 42.3557 -79.9125 236° Southwest  Level FlightAware Approximate
Sat 01:32:00 PM 42.3349 -79.9547 236° Southwest  Level FlightAware Approximate
Sat 01:33:00 PM 42.3140 -79.9968 236° Southwest  Level FlightAware Approximate
Sat 01:34:00 PM 42.2931 -80.0390 236° Southwest  Level FlightAware Approximate
Sat 01:35:00 PM 42.2721 -80.0811 236° Southwest  Level FlightAware Approximate
Sat 01:36:00 PM 42.2512 -80.1232 236° Southwest  Level FlightAware Approximate
Sat 01:37:00 PM 42.2303 -80.1653 236° Southwest  Level FlightAware Approximate
Sat 01:38:00 PM 42.2093 -80.2073 236° Southwest  Level FlightAware Approximate
Sat 01:39:00 PM 42.1883 -80.2493 236° Southwest  Level FlightAware Approximate
Sat 01:40:00 PM 42.1673 -80.2913 236° Southwest  Level FlightAware Approximate
Sat 01:41:00 PM 42.1463 -80.3333 236° Southwest  Level FlightAware Approximate
Sat 01:42:00 PM 42.1253 -80.3752 236° Southwest  Level FlightAware Approximate
Sat 01:43:00 PM 42.1043 -80.4171 236° Southwest  Level FlightAware Approximate
Sat 01:44:00 PM 42.0832 -80.4590 236° Southwest  Level FlightAware Approximate
Sat 01:45:00 PM 42.0621 -80.5008 236° Southwest  Level FlightAware Approximate
Sat 01:45:03 PM 41.8742 -80.8647 236° Southwest 177 204 3,800  Level Cleveland Center
Sat 01:46:00 PM 42.0410 -80.5427 236° Southwest  Level FlightAware Approximate
Sat 01:46:04 PM 41.8469 -80.9206 237° Southwest 180 207 3,800  Level Cleveland Center
Sat 01:47:00 PM 42.0199 -80.5844 236° Southwest  Level FlightAware Approximate
Sat 01:47:04 PM 41.8197 -80.9844 240° Southwest 184 212 3,800  Level Cleveland Center
Sat 01:48:00 PM 41.9988 -80.6262 236° Southwest  Level FlightAware Approximate
Sat 01:48:05 PM 41.7922 -81.0342 233° Southwest 175 201 3,900  Level Cleveland Center
Sat 01:49:00 PM 41.9777 -80.6680 236° Southwest  Level FlightAware Approximate
Sat 01:49:06 PM 41.7628 -81.0897 235° Southwest 173 199 4,000  Level Cleveland Center
Sat 01:50:00 PM 41.9565 -80.7097 236° Southwest  Level FlightAware Approximate
Sat 01:50:06 PM 41.7378 -81.1397 236° Southwest 173 199 4,000  Level Cleveland Center
Sat 01:51:13 PM 41.7144 -81.2089 246° West 186 214 4,100 -129 Climbing Cleveland Center
Sat 01:52:26 PM 41.6869 -81.2839 244° Southwest 190 219 3,700 -406 Descending Cleveland Center
Sat 01:53:26 PM 41.6636 -81.3475 244° Southwest 199 229 3,200 -545 Descending Cleveland Center
Sat 01:54:27 PM 41.6297 -81.4111 235° Southwest 196 226 2,600 -569 Descending Cleveland Center
Sat 01:55:22 PM 41.6022 -81.4494 226° Southwest 173 199 2,100 -365 Descending Cleveland Center
Sat 01:56:22 PM 41.5769 -81.4964 234° Southwest 153 176 1,900 -397 Descending Cleveland Center
Sat 01:57:23 PM 41.5519 -81.5044 194° South 101 116 1,300 -590 Descending Cleveland Center
Sat 01:59:00 PM 41.5500 -81.4833 90° East  Level FlightAware Approximate
Sat 02:06:00 PM 41.5651 -81.4864 90° East  Level Estimated

Login

Don't have an account? Register now (free) for customized features, flight alerts, and more!